Time;durP1;ratioP1;P1;durP2;ratioP2;P2;SDS_P1;SDS_P2;PMS_P1;PMS_P2;Temp;Humidity;BMP_temperature;BMP_pressure;BME280_temperature;BME280_humidity;BME280_pressure;Samples;Min_cycle;Max_cycle;Signal;HPM_P1;HPM_P2
2022/04/20 00:01:11;;;;;;;6.97;5.15;;;7.60;99.90;;;;;;5142389;27;20074;-70
2022/04/20 00:03:38;;;;;;;7.72;5.97;;;7.40;99.90;;;;;;5164668;27;20043;-70
2022/04/20 00:06:05;;;;;;;6.47;5.28;;;7.50;99.90;;;;;;5145092;27;20055;-70
2022/04/20 00:08:32;;;;;;;7.70;5.20;;;7.40;99.90;;;;;;5145948;27;20042;-70
2022/04/20 00:11:01;;;;;;;7.65;6.03;;;7.60;99.90;;;;;;5165375;27;20050;-70
2022/04/20 00:13:27;;;;;;;7.65;5.88;;;7.60;99.90;;;;;;5149741;27;20046;-70
2022/04/20 00:15:52;;;;;;;10.05;5.78;;;7.60;99.90;;;;;;5115407;27;20043;-70
2022/04/20 00:18:18;;;;;;;8.57;5.35;;;7.50;99.90;;;;;;5148731;27;20053;-70
2022/04/20 00:20:44;;;;;;;6.63;5.55;;;7.50;99.90;;;;;;5147765;27;20130;-70
2022/04/20 00:23:10;;;;;;;13.23;6.65;;;7.30;99.90;;;;;;5146342;27;20088;-70
2022/04/20 00:25:35;;;;;;;9.18;5.65;;;7.30;99.90;;;;;;5148987;27;20057;-70
2022/04/20 00:28:01;;;;;;;8.20;5.70;;;7.20;99.90;;;;;;5147894;27;20049;-70
2022/04/20 00:30:27;;;;;;;7.45;5.97;;;7.20;99.90;;;;;;5129086;27;20114;-70
2022/04/20 00:32:52;;;;;;;11.70;6.00;;;7.20;99.90;;;;;;5149512;27;20121;-70
2022/04/20 00:35:18;;;;;;;6.82;5.63;;;7.10;99.90;;;;;;5133682;27;20062;-70
2022/04/20 00:37:45;;;;;;;7.45;5.82;;;7.00;99.90;;;;;;5169737;27;20049;-70
2022/04/20 00:40:14;;;;;;;9.60;6.10;;;6.90;99.90;;;;;;5149136;27;20068;-70
2022/04/20 00:42:41;;;;;;;7.55;5.93;;;6.90;99.90;;;;;;5150238;27;20050;-70
2022/04/20 00:45:11;;;;;;;9.25;5.97;;;6.80;99.90;;;;;;5142881;27;20466;-70
2022/04/20 00:47:39;;;;;;;9.18;6.75;;;7.00;99.90;;;;;;5148006;27;20058;-70
2022/04/20 00:50:06;;;;;;;8.40;6.55;;;6.90;99.90;;;;;;5147101;27;20413;-70
2022/04/20 00:52:32;;;;;;;9.70;6.30;;;7.10;99.90;;;;;;5167543;27;20050;-70
2022/04/20 00:54:59;;;;;;;9.55;6.85;;;7.10;99.90;;;;;;5148254;27;20333;-70
2022/04/20 00:57:25;;;;;;;9.60;6.43;;;7.20;99.90;;;;;;5150058;27;20512;-70
2022/04/20 00:59:53;;;;;;;11.68;6.68;;;7.20;99.90;;;;;;5166980;27;20496;-70
2022/04/20 01:02:21;;;;;;;8.52;6.00;;;7.20;99.90;;;;;;5164540;27;20039;-70
2022/04/20 01:04:47;;;;;;;7.65;5.70;;;7.30;99.90;;;;;;5143595;27;20085;-70
2022/04/20 01:07:14;;;;;;;11.25;6.90;;;7.20;99.90;;;;;;5143312;27;20046;-70
2022/04/20 01:09:44;;;;;;;9.05;6.15;;;7.10;99.90;;;;;;5168644;27;20050;-70
2022/04/20 01:12:12;;;;;;;11.23;6.53;;;7.10;99.90;;;;;;5162295;27;20045;-70
2022/04/20 01:14:38;;;;;;;9.75;6.40;;;7.20;99.90;;;;;;5136521;27;20059;-70
2022/04/20 01:17:05;;;;;;;9.63;6.65;;;7.00;99.90;;;;;;5148026;27;20069;-70
2022/04/20 01:19:38;;;;;;;8.20;6.13;;;6.80;99.90;;;;;;5146315;27;20051;-70
2022/04/20 01:22:08;;;;;;;8.18;6.40;;;6.80;99.90;;;;;;5144168;27;20097;-70
2022/04/20 01:24:35;;;;;;;8.60;6.65;;;6.80;99.90;;;;;;5148786;27;20049;-70
2022/04/20 01:27:02;;;;;;;8.52;6.28;;;6.80;99.90;;;;;;5143702;27;20047;-70
2022/04/20 01:29:29;;;;;;;8.57;6.18;;;6.70;99.90;;;;;;5144936;27;20063;-70
2022/04/20 01:31:56;;;;;;;10.65;6.38;;;6.60;99.90;;;;;;5166970;27;20510;-70
2022/04/20 01:34:22;;;;;;;9.13;6.55;;;6.50;99.90;;;;;;5142667;27;20463;-70
2022/04/20 01:36:47;;;;;;;9.75;6.05;;;6.40;99.90;;;;;;5129337;27;20394;-70
2022/04/20 01:39:14;;;;;;;8.50;6.05;;;6.40;99.90;;;;;;5142820;27;20067;-70
2022/04/20 01:41:40;;;;;;;10.10;6.82;;;6.50;99.90;;;;;;5146709;27;20042;-70
2022/04/20 01:44:06;;;;;;;8.98;6.28;;;6.40;99.90;;;;;;5124765;27;20118;-70
2022/04/20 01:46:31;;;;;;;10.55;6.22;;;6.40;99.90;;;;;;5165066;27;20055;-70
2022/04/20 01:48:58;;;;;;;9.07;6.35;;;6.30;99.90;;;;;;5148156;27;20046;-70
2022/04/20 01:54:08;;;;;;;9.90;5.90;;;6.20;99.90;;;;;;5148124;27;20266;-70
2022/04/20 01:56:34;;;;;;;10.15;6.35;;;6.30;99.90;;;;;;5144362;27;20035;-70
2022/04/20 01:59:00;;;;;;;11.60;6.03;;;6.30;99.90;;;;;;5142935;27;20038;-70
2022/04/20 02:04:10;;;;;;;10.65;6.75;;;6.10;99.90;;;;;;5147444;27;20050;-70
2022/04/20 02:06:36;;;;;;;14.18;6.95;;;6.10;99.90;;;;;;5145042;27;20043;-70
2022/04/20 02:09:02;;;;;;;7.45;6.15;;;6.10;99.90;;;;;;5166603;27;20039;-70
2022/04/20 02:11:27;;;;;;;8.40;6.32;;;6.10;99.90;;;;;;5166208;27;20043;-70
2022/04/20 02:13:53;;;;;;;8.43;6.28;;;6.20;99.90;;;;;;5165792;27;20067;-70
2022/04/20 02:16:19;;;;;;;7.82;6.10;;;6.00;99.90;;;;;;5144907;27;20195;-70
2022/04/20 02:18:44;;;;;;;8.70;6.35;;;6.10;99.90;;;;;;5145780;27;20034;-70
2022/04/20 02:21:10;;;;;;;9.23;6.57;;;6.20;99.90;;;;;;5147289;27;20043;-70
2022/04/20 02:23:36;;;;;;;11.88;7.30;;;6.30;99.90;;;;;;5148550;27;20406;-70
2022/04/20 02:26:02;;;;;;;9.32;6.72;;;6.40;99.90;;;;;;5145954;27;20095;-70
2022/04/20 02:28:28;;;;;;;7.72;6.30;;;6.20;99.90;;;;;;5145381;27;20062;-70
2022/04/20 02:30:53;;;;;;;8.35;6.22;;;6.10;99.90;;;;;;5144506;27;20039;-70
2022/04/20 02:33:20;;;;;;;8.52;5.93;;;6.00;99.90;;;;;;5146645;27;20039;-70
2022/04/20 02:35:46;;;;;;;13.18;7.03;;;5.80;99.90;;;;;;5145676;27;20126;-70
2022/04/20 02:38:14;;;;;;;9.95;6.80;;;5.90;99.90;;;;;;5146844;27;20046;-70
2022/04/20 02:40:41;;;;;;;9.27;6.95;;;5.90;99.90;;;;;;5161575;27;20067;-70
2022/04/20 02:43:07;;;;;;;11.73;6.70;;;6.00;99.90;;;;;;5147654;27;20043;-70
2022/04/20 02:45:34;;;;;;;9.25;6.72;;;5.80;99.90;;;;;;5126728;27;20042;-70
2022/04/20 02:48:01;;;;;;;8.05;6.28;;;5.80;99.90;;;;;;5146875;27;20055;-70
2022/04/20 02:50:30;;;;;;;9.35;6.55;;;5.70;99.90;;;;;;5146028;27;20046;-70
2022/04/20 02:52:57;;;;;;;10.82;7.63;;;5.70;99.90;;;;;;5140846;27;20043;-70
2022/04/20 02:55:23;;;;;;;9.02;6.43;;;5.70;99.90;;;;;;5145153;27;20038;-70
2022/04/20 02:57:49;;;;;;;9.55;6.82;;;5.70;99.90;;;;;;5164177;27;20073;-70
2022/04/20 03:00:16;;;;;;;9.00;6.55;;;5.80;99.90;;;;;;5145608;27;20042;-70
2022/04/20 03:02:42;;;;;;;8.48;6.07;;;5.70;99.90;;;;;;5124836;27;20054;-70
2022/04/20 03:05:08;;;;;;;9.10;6.60;;;5.70;99.90;;;;;;5145672;27;20037;-70
2022/04/20 03:07:35;;;;;;;7.40;5.88;;;5.70;99.90;;;;;;5166025;27;20082;-70
2022/04/20 03:10:01;;;;;;;11.15;6.68;;;5.60;99.90;;;;;;5146514;27;20081;-70
2022/04/20 03:12:26;;;;;;;7.82;6.10;;;5.40;99.90;;;;;;5146120;27;20043;-70
2022/04/20 03:14:54;;;;;;;11.23;7.50;;;5.40;99.90;;;;;;5146539;27;20050;-70
2022/04/20 03:17:23;;;;;;;8.88;7.40;;;5.20;99.90;;;;;;5163377;27;20031;-70
2022/04/20 03:19:50;;;;;;;10.48;6.70;;;5.10;99.90;;;;;;5138556;27;20553;-70
2022/04/20 03:22:16;;;;;;;8.57;6.22;;;5.20;99.90;;;;;;5141651;27;20508;-70
2022/04/20 03:24:42;;;;;;;8.95;7.22;;;5.20;99.90;;;;;;5160785;27;20066;-69
2022/04/20 03:27:07;;;;;;;9.23;6.35;;;5.30;99.90;;;;;;5165915;27;20065;-70
2022/04/20 03:29:34;;;;;;;8.45;6.38;;;5.30;99.90;;;;;;5164298;27;20063;-70
2022/04/20 03:32:05;;;;;;;9.90;6.47;;;5.30;99.90;;;;;;5146922;27;20117;-70
2022/04/20 03:34:31;;;;;;;8.68;5.55;;;5.20;99.90;;;;;;5140035;27;20087;-70
2022/04/20 03:36:56;;;;;;;10.73;7.00;;;5.20;99.90;;;;;;5141491;27;20047;-70
2022/04/20 03:39:22;;;;;;;8.82;6.65;;;5.30;99.90;;;;;;5146592;27;20064;-70
2022/04/20 03:41:48;;;;;;;10.55;7.13;;;5.30;99.90;;;;;;5147360;27;20067;-70
2022/04/20 03:44:13;;;;;;;11.63;6.88;;;5.30;99.90;;;;;;5145938;27;20043;-70
2022/04/20 03:46:39;;;;;;;11.20;6.90;;;5.20;99.90;;;;;;5146220;27;20050;-70
2022/04/20 03:49:04;;;;;;;10.80;6.70;;;5.20;99.90;;;;;;5149949;27;20076;-70
2022/04/20 03:51:30;;;;;;;10.63;6.57;;;5.10;99.90;;;;;;5149130;27;20054;-70
2022/04/20 03:53:56;;;;;;;9.68;6.47;;;5.10;99.90;;;;;;5146346;27;20126;-70
2022/04/20 03:56:22;;;;;;;10.40;6.30;;;5.00;99.90;;;;;;5149936;27;20510;-70
2022/04/20 03:58:47;;;;;;;8.30;6.70;;;4.90;99.90;;;;;;5145794;27;20066;-70
2022/04/20 04:01:13;;;;;;;9.63;6.65;;;5.10;99.90;;;;;;5146383;27;20039;-69
2022/04/20 04:03:39;;;;;;;11.10;6.85;;;5.00;99.90;;;;;;5151609;27;20062;-70
2022/04/20 04:06:04;;;;;;;9.25;6.80;;;5.10;99.90;;;;;;5149561;27;20106;-70
2022/04/20 04:08:30;;;;;;;11.57;6.80;;;5.00;99.90;;;;;;5130677;27;20038;-70
2022/04/20 04:10:56;;;;;;;9.05;6.22;;;5.10;99.90;;;;;;5162165;27;20050;-70
2022/04/20 04:13:22;;;;;;;7.75;5.85;;;5.00;99.90;;;;;;5144660;27;20050;-70
2022/04/20 04:15:49;;;;;;;9.40;6.32;;;5.00;99.90;;;;;;5148058;27;20454;-70
2022/04/20 04:18:16;;;;;;;9.23;6.40;;;5.00;99.90;;;;;;5166280;27;20083;-70
2022/04/20 04:20:43;;;;;;;9.85;6.68;;;5.20;99.90;;;;;;5165801;27;20050;-70
2022/04/20 04:23:09;;;;;;;9.40;6.45;;;5.10;99.90;;;;;;5147680;27;20235;-70
2022/04/20 04:25:34;;;;;;;8.95;6.00;;;5.10;99.90;;;;;;5147907;27;20515;-70
2022/04/20 04:28:00;;;;;;;9.38;6.30;;;5.20;99.90;;;;;;5147490;27;20048;-70
2022/04/20 04:30:27;;;;;;;9.07;6.18;;;5.20;99.90;;;;;;5145043;27;20054;-70
2022/04/20 04:32:53;;;;;;;11.00;5.93;;;5.20;99.90;;;;;;5148757;27;20413;-70
2022/04/20 04:35:19;;;;;;;7.78;6.15;;;5.30;99.90;;;;;;5146692;27;20118;-70
2022/04/20 04:37:45;;;;;;;9.60;6.57;;;5.30;99.90;;;;;;5145240;27;20074;-70
2022/04/20 04:40:11;;;;;;;8.93;5.80;;;5.20;99.90;;;;;;5167645;27;20035;-70
2022/04/20 04:42:37;;;;;;;8.60;6.30;;;5.30;99.90;;;;;;5142975;27;20051;-69
2022/04/20 04:50:31;;;;;;;9.07;6.05;;;5.20;99.90;;;;;;5148430;27;20042;-70
2022/04/20 04:52:57;;;;;;;8.23;6.03;;;5.30;99.90;;;;;;5168587;27;20035;-70
2022/04/20 04:55:23;;;;;;;8.35;5.45;;;5.30;99.90;;;;;;5147070;27;20050;-70
2022/04/20 04:57:48;;;;;;;10.65;6.43;;;5.30;99.90;;;;;;5127987;27;20050;-70
2022/04/20 05:00:14;;;;;;;9.10;5.88;;;5.40;99.90;;;;;;5138770;27;20062;-70
2022/04/20 05:02:40;;;;;;;7.70;5.95;;;5.50;99.90;;;;;;5149631;27;20074;-70
2022/04/20 05:05:06;;;;;;;9.05;6.43;;;5.50;99.90;;;;;;5149255;27;20035;-70
2022/04/20 05:07:32;;;;;;;8.02;6.20;;;5.60;99.90;;;;;;5132539;27;20046;-70
2022/04/20 05:09:57;;;;;;;8.13;6.00;;;5.60;99.90;;;;;;5147854;27;20468;-70
2022/04/20 05:12:23;;;;;;;8.30;6.18;;;5.60;99.90;;;;;;5148404;27;20390;-70
2022/04/20 05:14:49;;;;;;;8.13;5.65;;;5.80;99.90;;;;;;5148277;27;20047;-69
2022/04/20 05:17:14;;;;;;;10.13;6.10;;;5.90;99.90;;;;;;5143484;27;20042;-70
2022/04/20 05:19:40;;;;;;;9.43;6.60;;;5.80;99.90;;;;;;5167235;27;20056;-70
2022/04/20 05:22:06;;;;;;;8.75;5.70;;;6.00;99.90;;;;;;5148793;27;20474;-69
2022/04/20 05:24:35;;;;;;;7.25;5.70;;;6.00;99.90;;;;;;5147971;27;20262;-70
2022/04/20 05:27:01;;;;;;;12.35;6.72;;;6.00;99.90;;;;;;5165026;27;20121;-70
2022/04/20 05:29:27;;;;;;;7.90;6.10;;;6.10;99.90;;;;;;5143426;27;20046;-69
2022/04/20 05:31:55;;;;;;;8.00;5.90;;;6.10;99.90;;;;;;5149478;27;20043;-69
2022/04/20 05:34:23;;;;;;;9.18;6.78;;;6.20;99.90;;;;;;5147449;27;20508;-70
2022/04/20 05:42:18;;;;;;;9.10;6.45;;;6.30;99.90;;;;;;5148931;27;20069;-70
2022/04/20 05:44:47;;;;;;;11.05;6.30;;;6.40;99.90;;;;;;5147997;27;20402;-76
2022/04/20 05:47:13;;;;;;;9.50;6.60;;;6.50;99.90;;;;;;5147026;27;20059;-70
2022/04/20 05:49:39;;;;;;;8.75;6.45;;;6.60;99.90;;;;;;5148343;27;20074;-70
2022/04/20 05:52:06;;;;;;;12.38;6.57;;;6.60;99.90;;;;;;5133772;27;20080;-69
2022/04/20 05:54:32;;;;;;;8.90;6.30;;;6.60;99.90;;;;;;5136438;27;20082;-69
2022/04/20 05:56:57;;;;;;;10.25;6.32;;;6.70;99.90;;;;;;5133605;27;20046;-70
2022/04/20 05:59:24;;;;;;;11.23;6.85;;;6.70;99.90;;;;;;5137719;27;20043;-69
2022/04/20 06:01:49;;;;;;;9.25;6.63;;;6.80;99.90;;;;;;5134994;27;20121;-69
2022/04/20 06:04:16;;;;;;;9.38;6.28;;;6.80;99.90;;;;;;5132524;27;20047;-69
2022/04/20 06:06:42;;;;;;;8.82;6.88;;;6.90;99.90;;;;;;5136538;27;20057;-68
2022/04/20 06:09:08;;;;;;;10.70;6.50;;;6.90;99.90;;;;;;5140095;27;20039;-68
2022/04/20 06:11:35;;;;;;;8.40;6.55;;;7.10;99.90;;;;;;5143614;27;20486;-70
2022/04/20 06:14:00;;;;;;;9.43;6.78;;;7.10;99.90;;;;;;5142912;27;20038;-69
2022/04/20 06:16:26;;;;;;;10.23;6.95;;;7.20;99.90;;;;;;5140403;27;20065;-68
2022/04/20 06:18:52;;;;;;;11.65;7.18;;;7.30;99.90;;;;;;5146491;27;20074;-68
2022/04/20 06:21:18;;;;;;;9.15;6.75;;;7.30;99.90;;;;;;5141778;27;20049;-68
2022/04/20 06:23:43;;;;;;;9.00;6.97;;;7.60;99.90;;;;;;5145457;27;20045;-68
2022/04/20 06:26:10;;;;;;;8.98;7.32;;;7.70;99.90;;;;;;5136145;27;20035;-68
2022/04/20 06:28:36;;;;;;;12.60;7.70;;;7.70;99.90;;;;;;5137685;27;20521;-68
2022/04/20 06:31:01;;;;;;;11.77;6.63;;;7.70;99.90;;;;;;5164033;27;20043;-67
2022/04/20 06:33:27;;;;;;;10.25;7.40;;;7.80;99.90;;;;;;5092967;27;20042;-68
2022/04/20 06:35:53;;;;;;;7.65;6.88;;;7.90;99.90;;;;;;5116947;27;20081;-67
2022/04/20 06:38:20;;;;;;;10.65;7.10;;;8.00;99.90;;;;;;5125688;27;20493;-67
2022/04/20 06:40:46;;;;;;;10.63;7.03;;;8.10;99.90;;;;;;5102055;27;20077;-65
2022/04/20 06:43:12;;;;;;;9.43;6.88;;;8.20;99.90;;;;;;5123351;27;20066;-65
2022/04/20 06:45:39;;;;;;;10.88;8.07;;;8.20;99.90;;;;;;5133428;27;20042;-65
2022/04/20 06:48:05;;;;;;;7.97;6.88;;;8.40;99.90;;;;;;5106780;27;20056;-65
2022/04/20 06:50:31;;;;;;;13.30;7.80;;;8.30;99.90;;;;;;5135294;27;20125;-65
2022/04/20 06:58:38;;;;;;;10.40;7.75;;;8.60;99.90;;;;;;5106923;27;20184;-66
2022/04/20 07:01:06;;;;;;;8.63;7.63;;;8.70;99.90;;;;;;5141487;27;20134;-66
2022/04/20 07:03:32;;;;;;;11.18;8.35;;;8.90;99.90;;;;;;5132316;27;20631;-66
2022/04/20 07:05:59;;;;;;;10.40;7.28;;;8.90;99.90;;;;;;5138736;27;20046;-66
2022/04/20 07:08:26;;;;;;;8.93;7.55;;;9.10;99.90;;;;;;5099828;27;20052;-65
2022/04/20 07:10:52;;;;;;;10.48;7.75;;;9.10;99.90;;;;;;5139583;27;20122;-66
2022/04/20 07:13:19;;;;;;;10.10;7.93;;;9.00;99.90;;;;;;5106382;28;20109;-66
2022/04/20 07:15:45;;;;;;;10.40;6.75;;;9.20;99.90;;;;;;5133572;27;20389;-66
2022/04/20 07:18:11;;;;;;;11.20;7.75;;;9.30;99.90;;;;;;5111113;27;20114;-66
2022/04/20 07:20:37;;;;;;;12.00;6.95;;;9.40;99.90;;;;;;5131881;27;20050;-66
2022/04/20 07:23:03;;;;;;;8.90;7.05;;;9.40;99.90;;;;;;5117835;27;20082;-66
2022/04/20 07:25:29;;;;;;;10.00;7.20;;;9.50;99.90;;;;;;5124003;27;20133;-66
2022/04/20 07:27:55;;;;;;;8.63;6.85;;;9.60;99.90;;;;;;5122693;27;20586;-66
2022/04/20 07:30:21;;;;;;;13.35;6.03;;;9.70;99.90;;;;;;5132241;27;20042;-65
2022/04/20 07:32:48;;;;;;;9.20;6.40;;;9.70;99.90;;;;;;5105882;27;20051;-66
2022/04/20 07:35:14;;;;;;;10.90;6.13;;;9.70;99.90;;;;;;5127825;27;20051;-65
2022/04/20 07:37:40;;;;;;;6.85;6.10;;;9.90;99.90;;;;;;5119440;27;20624;-66
2022/04/20 07:40:06;;;;;;;7.63;5.70;;;9.90;99.90;;;;;;5120185;27;20334;-65
2022/04/20 07:42:33;;;;;;;7.38;5.72;;;10.00;99.90;;;;;;5125900;27;20036;-66
2022/04/20 07:44:59;;;;;;;6.57;5.68;;;10.00;99.90;;;;;;5132366;27;20193;-66
2022/04/20 07:47:27;;;;;;;7.63;6.25;;;10.10;99.90;;;;;;5143927;27;20105;-66
2022/04/20 07:52:38;;;;;;;9.70;5.82;;;10.20;99.90;;;;;;5126002;27;20084;-66
2022/04/20 07:55:13;;;;;;;8.65;5.15;;;10.30;99.90;;;;;;5131854;27;20034;-66
2022/04/20 07:57:39;;;;;;;7.40;4.90;;;10.40;99.90;;;;;;5128290;27;20127;-65
2022/04/20 08:00:06;;;;;;;7.68;4.95;;;10.50;99.90;;;;;;5130669;27;20087;-65
2022/04/20 08:02:33;;;;;;;7.75;5.38;;;10.60;99.90;;;;;;5125087;27;20051;-66
2022/04/20 08:04:58;;;;;;;7.18;5.63;;;10.70;99.90;;;;;;5121002;27;20061;-65
2022/04/20 08:07:24;;;;;;;8.27;5.43;;;10.80;99.90;;;;;;5126147;27;20047;-66
2022/04/20 08:09:50;;;;;;;6.13;4.78;;;10.90;99.90;;;;;;5139094;27;20051;-66
2022/04/20 08:12:15;;;;;;;6.25;5.10;;;10.90;99.90;;;;;;5127335;27;20046;-66
2022/04/20 08:14:41;;;;;;;7.40;5.10;;;11.00;99.90;;;;;;5126226;27;20058;-66
2022/04/20 08:17:07;;;;;;;8.20;5.35;;;11.00;99.90;;;;;;5154025;27;20081;-66
2022/04/20 08:19:33;;;;;;;7.47;4.93;;;11.10;99.90;;;;;;5129971;27;20051;-66
2022/04/20 08:21:58;;;;;;;6.57;4.80;;;11.30;99.90;;;;;;5157010;27;20126;-66
2022/04/20 08:24:24;;;;;;;6.70;4.75;;;11.50;99.90;;;;;;5125258;27;20062;-66
2022/04/20 08:26:50;;;;;;;7.68;5.20;;;11.60;99.90;;;;;;5140236;27;20102;-66
2022/04/20 08:29:16;;;;;;;6.22;4.78;;;11.60;99.90;;;;;;5127688;27;20127;-66
2022/04/20 08:31:42;;;;;;;6.45;4.70;;;11.70;99.90;;;;;;5141125;27;20131;-66
2022/04/20 08:34:07;;;;;;;5.05;4.28;;;11.90;99.90;;;;;;5128689;27;20139;-65
2022/04/20 08:36:33;;;;;;;5.82;3.85;;;11.90;99.90;;;;;;5139289;27;20069;-66
2022/04/20 08:39:00;;;;;;;5.97;4.50;;;11.90;99.90;;;;;;5147666;27;20130;-66
2022/04/20 08:41:26;;;;;;;4.60;3.53;;;11.90;99.90;;;;;;5136932;27;20049;-66
2022/04/20 08:43:53;;;;;;;6.38;3.90;;;11.90;99.90;;;;;;5112919;27;20062;-66
2022/04/20 08:46:19;;;;;;;5.45;4.05;;;12.00;99.90;;;;;;5153080;27;20069;-66
2022/04/20 08:48:45;;;;;;;5.72;3.67;;;12.00;99.90;;;;;;5149170;27;20108;-66
2022/04/20 08:51:10;;;;;;;9.18;4.03;;;12.10;99.90;;;;;;5156429;27;20060;-66
2022/04/20 08:53:37;;;;;;;4.88;4.00;;;12.20;99.90;;;;;;5138992;27;20043;-66
2022/04/20 08:58:50;;;;;;;4.80;4.32;;;12.30;99.90;;;;;;5133915;27;20671;-66
2022/04/20 09:01:17;;;;;;;4.20;3.72;;;12.40;99.90;;;;;;5120678;27;20058;-65
2022/04/20 09:03:47;;;;;;;5.03;3.95;;;12.40;99.90;;;;;;5112468;27;20047;-65
2022/04/20 09:06:14;;;;;;;4.50;3.65;;;12.60;99.90;;;;;;5133608;27;20043;-65
2022/04/20 09:08:41;;;;;;;5.25;3.88;;;12.60;99.90;;;;;;5117412;27;20111;-65
2022/04/20 09:11:07;;;;;;;5.20;3.25;;;12.70;99.90;;;;;;5134627;27;20050;-65
2022/04/20 09:13:41;;;;;;;5.32;3.65;;;12.80;99.90;;;;;;5117882;27;20105;-65
2022/04/20 09:16:07;;;;;;;4.10;3.60;;;12.80;99.90;;;;;;5125612;27;20115;-65
2022/04/20 09:18:34;;;;;;;6.95;3.63;;;12.90;99.90;;;;;;5105422;27;20051;-65
2022/04/20 09:21:15;;;;;;;6.50;3.47;;;12.90;99.90;;;;;;5120415;27;20077;-65
2022/04/20 09:23:41;;;;;;;4.20;3.40;;;13.00;99.90;;;;;;5121245;27;20074;-65
2022/04/20 09:26:15;;;;;;;5.63;3.20;;;13.00;99.90;;;;;;5128276;27;20159;-65
2022/04/20 09:29:01;;;;;;;6.53;3.33;;;13.10;99.90;;;;;;5100849;27;20050;-65
2022/04/20 09:31:43;;;;;;;3.92;3.50;;;13.10;99.90;;;;;;5096207;27;20073;-66
2022/04/20 09:34:14;;;;;;;6.07;3.60;;;13.20;99.90;;;;;;5130604;27;20058;-65
2022/04/20 09:36:48;;;;;;;4.95;3.40;;;13.30;99.90;;;;;;5120889;27;20530;-65
2022/04/20 09:39:14;;;;;;;3.70;3.03;;;13.40;99.90;;;;;;5126180;27;20054;-65
2022/04/20 09:41:55;;;;;;;3.75;3.10;;;13.40;99.90;;;;;;5137081;27;20030;-65
2022/04/20 09:44:22;;;;;;;3.75;3.30;;;13.40;99.90;;;;;;5122198;27;20057;-66
2022/04/20 09:49:56;;;;;;;4.63;3.25;;;13.50;99.90;;;;;;5124863;27;20050;-65
2022/04/20 09:52:34;;;;;;;5.15;3.22;;;13.60;99.90;;;;;;5130371;27;20219;-65
2022/04/20 09:55:00;;;;;;;5.03;3.20;;;13.60;99.90;;;;;;5127833;27;20090;-65
2022/04/20 09:57:26;;;;;;;5.47;3.67;;;13.60;99.90;;;;;;5127023;27;20058;-65
2022/04/20 09:59:57;;;;;;;4.68;3.08;;;13.70;99.90;;;;;;5119487;27;20081;-65
2022/04/20 10:02:23;;;;;;;3.53;3.10;;;14.00;99.10;;;;;;5148939;27;20059;-65
2022/04/20 10:04:49;;;;;;;3.90;3.15;;;13.80;99.90;;;;;;5114609;27;20051;-65
2022/04/20 10:07:15;;;;;;;4.13;3.05;;;14.00;99.90;;;;;;5093935;27;20095;-64
2022/04/20 10:09:43;;;;;;;4.45;3.55;;;14.10;99.90;;;;;;5118845;27;20047;-65
2022/04/20 10:12:12;;;;;;;5.70;3.40;;;14.10;99.30;;;;;;5120575;27;20620;-65
2022/04/20 10:17:28;;;;;;;5.35;3.97;;;14.20;98.70;;;;;;5124481;27;20066;-66
2022/04/20 10:19:54;;;;;;;4.93;3.33;;;14.30;99.00;;;;;;5134832;27;20105;-66
2022/04/20 10:22:22;;;;;;;4.00;3.28;;;14.20;99.90;;;;;;5128845;27;20088;-66
2022/04/20 10:24:53;;;;;;;3.70;3.40;;;14.10;98.60;;;;;;5127220;27;20049;-66
2022/04/20 10:27:28;;;;;;;5.63;3.58;;;14.30;99.90;;;;;;5107534;27;20116;-66
2022/04/20 10:30:07;;;;;;;4.72;3.60;;;14.40;99.90;;;;;;5116535;27;20038;-69
2022/04/20 10:33:08;;;;;;;3.72;3.30;;;14.50;98.30;;;;;;5104404;27;20323;-64
2022/04/20 10:36:00;;;;;;;4.28;3.42;;;14.50;97.30;;;;;;5027963;28;20825;-63
2022/04/20 10:38:29;;;;;;;4.25;3.15;;;14.70;96.80;;;;;;5032406;28;20073;-63
2022/04/20 10:40:58;;;;;;;4.17;3.20;;;14.70;95.40;;;;;;5025004;28;20088;-63
2022/04/20 10:43:24;;;;;;;3.42;3.00;;;14.60;95.90;;;;;;5051790;28;20932;-63
2022/04/20 10:46:11;;;;;;;4.85;2.65;;;14.70;98.70;;;;;;5040316;28;20248;-61
2022/04/20 10:49:07;;;;;;;3.20;2.90;;;14.90;98.50;;;;;;5035101;28;20305;-62
2022/04/20 10:51:39;;;;;;;4.25;3.10;;;15.20;93.00;;;;;;5026764;28;20115;-62
2022/04/20 10:54:24;;;;;;;3.38;2.75;;;15.10;95.90;;;;;;5049559;28;20055;-66
2022/04/20 10:57:09;;;;;;;3.53;2.67;;;15.40;90.10;;;;;;5009997;28;20422;-66
2022/04/20 10:59:35;;;;;;;4.35;3.05;;;15.60;92.30;;;;;;5034758;28;20268;-66
2022/04/20 11:02:06;;;;;;;4.07;2.58;;;15.60;93.40;;;;;;5025963;28;20546;-67
2022/04/20 11:04:46;;;;;;;4.85;2.70;;;15.50;92.10;;;;;;5033862;28;20271;-67
2022/04/20 11:07:15;;;;;;;4.30;2.50;;;15.60;81.30;;;;;;5024925;28;20049;-67
2022/04/20 11:09:46;;;;;;;6.47;2.97;;;15.50;76.90;;;;;;5034630;28;20048;-67
2022/04/20 11:21:03;;;;;;;3.03;2.60;;;15.80;75.70;;;;;;5107800;28;20047;-67
2022/04/20 11:23:49;;;;;;;3.40;2.45;;;15.80;74.40;;;;;;5119749;27;20077;-67
2022/04/20 11:26:26;;;;;;;3.15;2.50;;;15.80;74.50;;;;;;5114599;28;20043;-67
2022/04/20 11:28:53;;;;;;;3.55;2.53;;;16.10;70.10;;;;;;5112058;28;20184;-68
2022/04/20 11:31:18;;;;;;;3.13;2.58;;;16.10;72.50;;;;;;5096601;28;20047;-65
2022/04/20 11:33:44;;;;;;;4.85;3.20;;;16.20;71.10;;;;;;5108912;28;20448;-65
2022/04/20 11:36:14;;;;;;;6.30;2.75;;;16.20;74.70;;;;;;5115632;28;20031;-65
2022/04/20 11:38:45;;;;;;;3.85;2.60;;;16.40;75.10;;;;;;5088972;28;20146;-65
2022/04/20 11:41:12;;;;;;;5.05;2.70;;;16.30;71.80;;;;;;5124209;28;20039;-65
2022/04/20 11:43:39;;;;;;;3.10;2.42;;;16.40;72.60;;;;;;5100596;27;20051;-65
2022/04/20 11:46:07;;;;;;;3.60;2.30;;;16.40;71.10;;;;;;5117864;28;20465;-65
2022/04/20 11:48:37;;;;;;;11.48;3.17;;;16.60;69.30;;;;;;5119750;27;20070;-65
2022/04/20 11:51:07;;;;;;;7.55;2.60;;;16.80;67.60;;;;;;5135358;27;20074;-65
2022/04/20 11:53:42;;;;;;;3.72;2.58;;;16.70;68.10;;;;;;5110226;28;20090;-65
2022/04/20 11:56:11;;;;;;;3.58;2.70;;;16.80;66.30;;;;;;5096702;28;20130;-65
2022/04/20 11:58:38;;;;;;;9.30;3.78;;;16.70;67.10;;;;;;5104940;28;20062;-65
2022/04/20 12:01:08;;;;;;;4.55;2.50;;;16.60;64.50;;;;;;5134117;27;20494;-65
2022/04/20 12:03:42;;;;;;;2.53;2.33;;;16.60;63.20;;;;;;5102281;27;20051;-65
2022/04/20 12:06:10;;;;;;;3.17;2.85;;;16.80;66.30;;;;;;5103564;27;20108;-65
2022/04/20 12:08:40;;;;;;;3.33;2.60;;;16.80;67.00;;;;;;5074721;27;20052;-65
2022/04/20 12:11:08;;;;;;;3.67;2.40;;;16.70;67.20;;;;;;5110169;27;20553;-65
2022/04/20 12:13:35;;;;;;;4.50;2.50;;;16.90;68.80;;;;;;5116509;27;20050;-65
2022/04/20 12:16:09;;;;;;;4.18;2.83;;;16.80;68.20;;;;;;5141064;27;20038;-64
2022/04/20 12:18:37;;;;;;;7.40;2.50;;;16.90;67.60;;;;;;5126415;27;20050;-65
2022/04/20 12:21:26;;;;;;;4.82;3.05;;;16.90;64.30;;;;;;5142744;27;20493;-65
2022/04/20 12:23:52;;;;;;;8.18;2.92;;;17.10;65.10;;;;;;5102042;27;20375;-65
2022/04/20 12:26:27;;;;;;;14.05;3.80;;;17.10;66.70;;;;;;5105163;27;20070;-65
2022/04/20 12:28:58;;;;;;;5.72;3.15;;;17.20;67.20;;;;;;5096044;27;20062;-65
2022/04/20 12:31:25;;;;;;;6.93;3.08;;;17.30;70.00;;;;;;5129400;27;20130;-65
2022/04/20 12:34:05;;;;;;;7.05;3.47;;;17.30;70.60;;;;;;5100001;27;20051;-66
2022/04/20 12:36:48;;;;;;;12.93;3.80;;;17.30;73.50;;;;;;5128489;27;20040;-66
2022/04/20 12:39:25;;;;;;;8.05;3.13;;;17.60;70.10;;;;;;5120702;27;20115;-65
2022/04/20 12:42:02;;;;;;;10.43;3.65;;;17.70;64.20;;;;;;5132523;27;20050;-65
2022/04/20 12:44:39;;;;;;;4.28;3.00;;;17.60;68.90;;;;;;5108657;27;20050;-65
2022/04/20 12:47:10;;;;;;;4.68;3.20;;;17.50;68.10;;;;;;5137326;27;20066;-65
2022/04/20 12:49:36;;;;;;;4.28;2.95;;;17.50;68.80;;;;;;5122829;27;20050;-65
2022/04/20 12:52:06;;;;;;;9.50;3.88;;;17.50;71.30;;;;;;5137543;27;20282;-65
2022/04/20 12:54:32;;;;;;;4.75;3.00;;;17.70;73.80;;;;;;5114341;27;20043;-65
2022/04/20 13:02:26;;;;;;;6.05;3.55;;;18.00;69.30;;;;;;5135203;27;20264;-65
2022/04/20 13:04:52;;;;;;;4.13;3.13;;;18.10;69.40;;;;;;5134041;27;20096;-65
2022/04/20 13:07:18;;;;;;;4.15;3.40;;;18.00;69.30;;;;;;5128726;27;20043;-65
2022/04/20 13:09:43;;;;;;;6.15;3.22;;;18.40;71.40;;;;;;5133233;27;20040;-65
2022/04/20 13:12:09;;;;;;;5.22;3.78;;;18.40;69.10;;;;;;5133390;27;20027;-65
2022/04/20 13:14:36;;;;;;;4.80;3.67;;;18.60;68.00;;;;;;5113650;27;20074;-65
2022/04/20 13:17:02;;;;;;;17.50;3.67;;;18.60;70.00;;;;;;5126011;27;20118;-65
2022/04/20 13:19:27;;;;;;;6.50;4.00;;;18.70;73.60;;;;;;5122322;27;20071;-65
2022/04/20 13:21:53;;;;;;;5.40;3.60;;;18.70;75.60;;;;;;5115878;27;20043;-66
2022/04/20 13:29:52;;;;;;;15.88;4.70;;;18.90;75.70;;;;;;5118342;27;20111;-65
2022/04/20 13:32:18;;;;;;;7.75;4.15;;;18.90;75.80;;;;;;5112325;27;20044;-66
2022/04/20 13:34:43;;;;;;;5.13;3.70;;;19.00;74.40;;;;;;5118119;27;20047;-65
2022/04/20 13:37:09;;;;;;;4.45;3.88;;;19.20;68.70;;;;;;5118755;27;20050;-65
2022/04/20 13:39:35;;;;;;;3.80;3.42;;;19.30;66.40;;;;;;5128159;27;20445;-66
2022/04/20 13:42:00;;;;;;;4.55;4.13;;;19.50;67.00;;;;;;5135187;27;20271;-65
2022/04/20 13:44:26;;;;;;;4.78;3.83;;;19.60;65.90;;;;;;5119631;27;20042;-66
2022/04/20 13:46:52;;;;;;;4.38;3.45;;;19.80;66.10;;;;;;5115971;27;20134;-65